Terminal Aerodrome Forecast
Issued by NWS

Home | Current Version | Previous Version | Text Only | Print | Product List | Glossary On
Versions: 1 2 3 4 5 6 7 8 9 10 11 12 13 14 15 16 17 18 19
774
FTUS41 KPBZ 222200 AAB
TAFAGC
TAF AMD
KAGC 222200Z 2222/2318 20006KT P6SM BKN040
     FM230300 20005KT P6SM BKN025
     FM230600 20003KT P6SM OVC012
     FM230800 20004KT 4SM BR OVC008
     FM231700 23007KT P6SM VCSH BKN012=

USA.gov is the U.S. government's official web portal to all federal, state and local government web resources and services.